sensor_id;sensor_type;location;lat;lon;timestamp;P1;durP1;ratioP1;P2;durP2;ratioP2
71196;SDS011;58918;51.652;4.864;2023-07-30T00:01:11;4.40;;;1.13;;
71196;SDS011;58918;51.652;4.864;2023-07-30T00:03:39;5.40;;;1.48;;
71196;SDS011;58918;51.652;4.864;2023-07-30T00:06:06;5.40;;;1.20;;
71196;SDS011;58918;51.652;4.864;2023-07-30T00:08:33;6.32;;;1.35;;
71196;SDS011;58918;51.652;4.864;2023-07-30T00:11:03;6.43;;;1.30;;
71196;SDS011;58918;51.652;4.864;2023-07-30T00:13:32;6.03;;;1.33;;
71196;SDS011;58918;51.652;4.864;2023-07-30T00:16:07;6.97;;;1.25;;
71196;SDS011;58918;51.652;4.864;2023-07-30T00:18:34;5.18;;;1.30;;
71196;SDS011;58918;51.652;4.864;2023-07-30T00:21:02;7.18;;;1.45;;
71196;SDS011;58918;51.652;4.864;2023-07-30T00:23:29;4.50;;;1.10;;
71196;SDS011;58918;51.652;4.864;2023-07-30T00:25:56;5.85;;;1.10;;
71196;SDS011;58918;51.652;4.864;2023-07-30T00:28:23;4.50;;;1.15;;
71196;SDS011;58918;51.652;4.864;2023-07-30T00:30:51;5.25;;;1.17;;
71196;SDS011;58918;51.652;4.864;2023-07-30T00:33:18;4.45;;;1.13;;
71196;SDS011;58918;51.652;4.864;2023-07-30T00:35:45;4.50;;;1.20;;
71196;SDS011;58918;51.652;4.864;2023-07-30T00:38:12;4.63;;;1.13;;
71196;SDS011;58918;51.652;4.864;2023-07-30T00:40:42;7.30;;;1.40;;
71196;SDS011;58918;51.652;4.864;2023-07-30T00:43:09;5.38;;;1.40;;
71196;SDS011;58918;51.652;4.864;2023-07-30T00:45:36;4.68;;;1.17;;
71196;SDS011;58918;51.652;4.864;2023-07-30T00:48:05;5.95;;;1.30;;
71196;SDS011;58918;51.652;4.864;2023-07-30T00:50:32;6.95;;;1.60;;
71196;SDS011;58918;51.652;4.864;2023-07-30T00:53:00;5.80;;;1.13;;
71196;SDS011;58918;51.652;4.864;2023-07-30T00:55:27;5.88;;;1.23;;
71196;SDS011;58918;51.652;4.864;2023-07-30T00:57:54;4.72;;;1.15;;
71196;SDS011;58918;51.652;4.864;2023-07-30T01:00:21;3.72;;;1.08;;
71196;SDS011;58918;51.652;4.864;2023-07-30T01:02:51;7.75;;;1.30;;
71196;SDS011;58918;51.652;4.864;2023-07-30T01:05:18;6.90;;;1.40;;
71196;SDS011;58918;51.652;4.864;2023-07-30T01:07:47;5.80;;;1.10;;
71196;SDS011;58918;51.652;4.864;2023-07-30T01:10:14;5.78;;;1.50;;
71196;SDS011;58918;51.652;4.864;2023-07-30T01:12:42;8.00;;;1.70;;
71196;SDS011;58918;51.652;4.864;2023-07-30T01:15:09;7.38;;;1.20;;
71196;SDS011;58918;51.652;4.864;2023-07-30T01:17:37;5.05;;;1.50;;
71196;SDS011;58918;51.652;4.864;2023-07-30T01:20:04;11.65;;;1.30;;
71196;SDS011;58918;51.652;4.864;2023-07-30T01:22:32;7.78;;;1.95;;
71196;SDS011;58918;51.652;4.864;2023-07-30T01:24:59;6.72;;;1.60;;
71196;SDS011;58918;51.652;4.864;2023-07-30T01:27:28;7.88;;;1.50;;
71196;SDS011;58918;51.652;4.864;2023-07-30T01:30:41;4.53;;;1.40;;
71196;SDS011;58918;51.652;4.864;2023-07-30T01:32:43;5.40;;;1.45;;
71196;SDS011;58918;51.652;4.864;2023-07-30T01:35:11;9.75;;;1.67;;
71196;SDS011;58918;51.652;4.864;2023-07-30T01:37:40;8.18;;;1.38;;
71196;SDS011;58918;51.652;4.864;2023-07-30T01:40:08;6.90;;;2.25;;
71196;SDS011;58918;51.652;4.864;2023-07-30T01:42:36;5.53;;;1.30;;
71196;SDS011;58918;51.652;4.864;2023-07-30T01:45:04;8.13;;;1.50;;
71196;SDS011;58918;51.652;4.864;2023-07-30T01:47:31;11.60;;;1.77;;
71196;SDS011;58918;51.652;4.864;2023-07-30T01:49:58;7.40;;;1.65;;
71196;SDS011;58918;51.652;4.864;2023-07-30T01:52:26;5.15;;;1.38;;
71196;SDS011;58918;51.652;4.864;2023-07-30T01:54:53;9.30;;;1.42;;
71196;SDS011;58918;51.652;4.864;2023-07-30T01:57:22;7.25;;;1.65;;
71196;SDS011;58918;51.652;4.864;2023-07-30T01:59:49;6.80;;;1.40;;
71196;SDS011;58918;51.652;4.864;2023-07-30T02:02:16;7.63;;;1.70;;
71196;SDS011;58918;51.652;4.864;2023-07-30T02:04:44;9.45;;;1.70;;
71196;SDS011;58918;51.652;4.864;2023-07-30T02:07:11;12.05;;;2.10;;
71196;SDS011;58918;51.652;4.864;2023-07-30T02:09:38;9.48;;;1.95;;
71196;SDS011;58918;51.652;4.864;2023-07-30T02:12:06;9.73;;;1.75;;
71196;SDS011;58918;51.652;4.864;2023-07-30T02:14:35;10.02;;;1.67;;
71196;SDS011;58918;51.652;4.864;2023-07-30T02:17:02;5.80;;;1.60;;
71196;SDS011;58918;51.652;4.864;2023-07-30T02:19:29;5.68;;;1.70;;
71196;SDS011;58918;51.652;4.864;2023-07-30T02:21:57;9.40;;;1.90;;
71196;SDS011;58918;51.652;4.864;2023-07-30T02:24:24;9.25;;;1.92;;
71196;SDS011;58918;51.652;4.864;2023-07-30T02:26:51;11.85;;;2.33;;
71196;SDS011;58918;51.652;4.864;2023-07-30T02:29:18;7.38;;;1.77;;
71196;SDS011;58918;51.652;4.864;2023-07-30T02:31:45;9.77;;;1.88;;
71196;SDS011;58918;51.652;4.864;2023-07-30T02:34:13;5.68;;;1.80;;
71196;SDS011;58918;51.652;4.864;2023-07-30T02:36:40;9.57;;;1.52;;
71196;SDS011;58918;51.652;4.864;2023-07-30T02:39:07;10.07;;;1.80;;
71196;SDS011;58918;51.652;4.864;2023-07-30T02:41:34;11.10;;;1.83;;
71196;SDS011;58918;51.652;4.864;2023-07-30T02:44:02;11.25;;;2.00;;
71196;SDS011;58918;51.652;4.864;2023-07-30T02:46:29;7.65;;;1.60;;
71196;SDS011;58918;51.652;4.864;2023-07-30T02:48:56;7.43;;;1.52;;
71196;SDS011;58918;51.652;4.864;2023-07-30T02:51:23;8.15;;;1.80;;
71196;SDS011;58918;51.652;4.864;2023-07-30T02:53:57;10.27;;;1.92;;
71196;SDS011;58918;51.652;4.864;2023-07-30T02:56:27;13.50;;;2.00;;
71196;SDS011;58918;51.652;4.864;2023-07-30T02:58:54;9.52;;;1.95;;
71196;SDS011;58918;51.652;4.864;2023-07-30T03:01:21;8.25;;;2.75;;
71196;SDS011;58918;51.652;4.864;2023-07-30T03:03:49;11.90;;;1.77;;
71196;SDS011;58918;51.652;4.864;2023-07-30T03:06:16;8.10;;;2.03;;
71196;SDS011;58918;51.652;4.864;2023-07-30T03:08:43;9.95;;;2.00;;
71196;SDS011;58918;51.652;4.864;2023-07-30T03:11:10;8.15;;;2.13;;
71196;SDS011;58918;51.652;4.864;2023-07-30T03:13:39;6.95;;;1.50;;
71196;SDS011;58918;51.652;4.864;2023-07-30T03:16:08;10.63;;;2.17;;
71196;SDS011;58918;51.652;4.864;2023-07-30T03:18:37;11.20;;;2.00;;
71196;SDS011;58918;51.652;4.864;2023-07-30T03:21:04;6.75;;;1.90;;
71196;SDS011;58918;51.652;4.864;2023-07-30T03:23:31;7.75;;;1.92;;
71196;SDS011;58918;51.652;4.864;2023-07-30T03:25:59;12.75;;;1.77;;
71196;SDS011;58918;51.652;4.864;2023-07-30T03:28:26;8.57;;;1.70;;
71196;SDS011;58918;51.652;4.864;2023-07-30T03:30:53;7.55;;;1.77;;
71196;SDS011;58918;51.652;4.864;2023-07-30T03:33:21;11.20;;;2.20;;
71196;SDS011;58918;51.652;4.864;2023-07-30T03:35:48;8.05;;;1.80;;
71196;SDS011;58918;51.652;4.864;2023-07-30T03:38:15;10.45;;;2.63;;
71196;SDS011;58918;51.652;4.864;2023-07-30T03:40:44;8.00;;;2.15;;
71196;SDS011;58918;51.652;4.864;2023-07-30T03:43:12;8.85;;;1.60;;
71196;SDS011;58918;51.652;4.864;2023-07-30T03:45:40;12.02;;;2.03;;
71196;SDS011;58918;51.652;4.864;2023-07-30T03:48:07;7.45;;;1.77;;
71196;SDS011;58918;51.652;4.864;2023-07-30T03:50:35;10.23;;;2.38;;
71196;SDS011;58918;51.652;4.864;2023-07-30T03:53:02;9.40;;;1.75;;
71196;SDS011;58918;51.652;4.864;2023-07-30T03:55:29;15.73;;;2.35;;
71196;SDS011;58918;51.652;4.864;2023-07-30T03:57:56;12.25;;;2.30;;
71196;SDS011;58918;51.652;4.864;2023-07-30T04:00:24;10.05;;;2.35;;
71196;SDS011;58918;51.652;4.864;2023-07-30T04:02:52;10.48;;;2.00;;
71196;SDS011;58918;51.652;4.864;2023-07-30T04:05:19;11.18;;;2.10;;
71196;SDS011;58918;51.652;4.864;2023-07-30T04:07:46;14.38;;;2.47;;
71196;SDS011;58918;51.652;4.864;2023-07-30T04:10:13;10.82;;;2.47;;
71196;SDS011;58918;51.652;4.864;2023-07-30T04:12:40;9.65;;;2.28;;
71196;SDS011;58918;51.652;4.864;2023-07-30T04:15:07;9.73;;;2.05;;
71196;SDS011;58918;51.652;4.864;2023-07-30T04:17:36;9.63;;;2.05;;
71196;SDS011;58918;51.652;4.864;2023-07-30T04:20:05;12.85;;;3.08;;
71196;SDS011;58918;51.652;4.864;2023-07-30T04:22:32;14.30;;;3.17;;
71196;SDS011;58918;51.652;4.864;2023-07-30T04:25:01;12.50;;;3.03;;
71196;SDS011;58918;51.652;4.864;2023-07-30T04:27:29;12.05;;;2.30;;
71196;SDS011;58918;51.652;4.864;2023-07-30T04:29:59;10.73;;;2.20;;
71196;SDS011;58918;51.652;4.864;2023-07-30T04:32:27;10.98;;;2.25;;
71196;SDS011;58918;51.652;4.864;2023-07-30T04:34:54;12.52;;;2.60;;
71196;SDS011;58918;51.652;4.864;2023-07-30T04:37:21;12.43;;;2.50;;
71196;SDS011;58918;51.652;4.864;2023-07-30T04:39:48;9.93;;;2.40;;
71196;SDS011;58918;51.652;4.864;2023-07-30T04:42:16;12.05;;;3.15;;
71196;SDS011;58918;51.652;4.864;2023-07-30T04:44:43;10.65;;;2.10;;
71196;SDS011;58918;51.652;4.864;2023-07-30T04:47:11;15.23;;;2.28;;
71196;SDS011;58918;51.652;4.864;2023-07-30T04:49:38;12.85;;;3.03;;
71196;SDS011;58918;51.652;4.864;2023-07-30T04:52:07;13.88;;;2.40;;
71196;SDS011;58918;51.652;4.864;2023-07-30T04:54:34;13.63;;;2.58;;
71196;SDS011;58918;51.652;4.864;2023-07-30T04:57:02;11.63;;;2.78;;
71196;SDS011;58918;51.652;4.864;2023-07-30T04:59:30;16.13;;;2.67;;
71196;SDS011;58918;51.652;4.864;2023-07-30T05:01:57;10.02;;;2.38;;
71196;SDS011;58918;51.652;4.864;2023-07-30T05:04:24;7.82;;;2.42;;
71196;SDS011;58918;51.652;4.864;2023-07-30T05:06:51;11.80;;;2.72;;
71196;SDS011;58918;51.652;4.864;2023-07-30T05:09:19;12.43;;;2.65;;
71196;SDS011;58918;51.652;4.864;2023-07-30T05:11:46;13.18;;;3.13;;
71196;SDS011;58918;51.652;4.864;2023-07-30T05:14:13;14.10;;;3.53;;
71196;SDS011;58918;51.652;4.864;2023-07-30T05:16:40;18.05;;;3.80;;
71196;SDS011;58918;51.652;4.864;2023-07-30T05:19:11;10.93;;;2.55;;
71196;SDS011;58918;51.652;4.864;2023-07-30T05:21:38;18.45;;;4.93;;
71196;SDS011;58918;51.652;4.864;2023-07-30T05:24:06;9.48;;;2.55;;
71196;SDS011;58918;51.652;4.864;2023-07-30T05:26:35;13.93;;;3.58;;
71196;SDS011;58918;51.652;4.864;2023-07-30T05:29:05;11.15;;;2.90;;
71196;SDS011;58918;51.652;4.864;2023-07-30T05:31:34;12.40;;;2.83;;
71196;SDS011;58918;51.652;4.864;2023-07-30T05:34:02;13.40;;;3.40;;
71196;SDS011;58918;51.652;4.864;2023-07-30T05:36:29;34.47;;;5.47;;
71196;SDS011;58918;51.652;4.864;2023-07-30T05:38:56;16.48;;;3.47;;
71196;SDS011;58918;51.652;4.864;2023-07-30T05:41:24;13.95;;;2.85;;
71196;SDS011;58918;51.652;4.864;2023-07-30T05:43:51;12.85;;;3.60;;
71196;SDS011;58918;51.652;4.864;2023-07-30T05:46:18;12.05;;;2.50;;
71196;SDS011;58918;51.652;4.864;2023-07-30T05:48:45;13.55;;;2.80;;
71196;SDS011;58918;51.652;4.864;2023-07-30T05:51:13;11.00;;;3.05;;
71196;SDS011;58918;51.652;4.864;2023-07-30T05:53:40;9.30;;;2.28;;
71196;SDS011;58918;51.652;4.864;2023-07-30T05:56:07;14.27;;;2.70;;
71196;SDS011;58918;51.652;4.864;2023-07-30T05:58:34;12.63;;;2.53;;
71196;SDS011;58918;51.652;4.864;2023-07-30T06:01:01;11.68;;;2.50;;
71196;SDS011;58918;51.652;4.864;2023-07-30T06:03:29;9.57;;;2.55;;
71196;SDS011;58918;51.652;4.864;2023-07-30T06:05:56;13.10;;;2.40;;
71196;SDS011;58918;51.652;4.864;2023-07-30T06:08:23;12.68;;;2.72;;
71196;SDS011;58918;51.652;4.864;2023-07-30T06:10:50;13.70;;;2.28;;
71196;SDS011;58918;51.652;4.864;2023-07-30T06:13:17;20.15;;;2.95;;
71196;SDS011;58918;51.652;4.864;2023-07-30T06:15:45;16.08;;;2.47;;
71196;SDS011;58918;51.652;4.864;2023-07-30T06:18:12;10.90;;;2.80;;
71196;SDS011;58918;51.652;4.864;2023-07-30T06:20:39;11.30;;;2.30;;
71196;SDS011;58918;51.652;4.864;2023-07-30T06:23:07;18.15;;;3.22;;
71196;SDS011;58918;51.652;4.864;2023-07-30T06:25:34;19.20;;;3.95;;
71196;SDS011;58918;51.652;4.864;2023-07-30T06:28:01;11.80;;;2.47;;
71196;SDS011;58918;51.652;4.864;2023-07-30T06:30:29;12.57;;;2.75;;
71196;SDS011;58918;51.652;4.864;2023-07-30T06:32:56;15.35;;;2.90;;
71196;SDS011;58918;51.652;4.864;2023-07-30T06:35:24;12.52;;;2.40;;
71196;SDS011;58918;51.652;4.864;2023-07-30T06:37:51;13.52;;;2.53;;
71196;SDS011;58918;51.652;4.864;2023-07-30T06:40:18;14.70;;;2.60;;
71196;SDS011;58918;51.652;4.864;2023-07-30T06:42:45;19.65;;;2.67;;
71196;SDS011;58918;51.652;4.864;2023-07-30T06:45:12;13.07;;;2.38;;
71196;SDS011;58918;51.652;4.864;2023-07-30T06:47:40;12.00;;;2.60;;
71196;SDS011;58918;51.652;4.864;2023-07-30T06:50:07;15.40;;;3.53;;
71196;SDS011;58918;51.652;4.864;2023-07-30T06:52:35;14.43;;;2.63;;
71196;SDS011;58918;51.652;4.864;2023-07-30T06:55:02;13.52;;;2.50;;
71196;SDS011;58918;51.652;4.864;2023-07-30T06:57:29;11.23;;;2.50;;
71196;SDS011;58918;51.652;4.864;2023-07-30T06:59:57;13.02;;;2.70;;
71196;SDS011;58918;51.652;4.864;2023-07-30T07:02:24;11.57;;;2.75;;
71196;SDS011;58918;51.652;4.864;2023-07-30T07:04:51;10.52;;;2.35;;
71196;SDS011;58918;51.652;4.864;2023-07-30T07:07:18;14.57;;;2.83;;
71196;SDS011;58918;51.652;4.864;2023-07-30T07:09:46;12.93;;;3.08;;
71196;SDS011;58918;51.652;4.864;2023-07-30T07:12:13;16.40;;;3.03;;
71196;SDS011;58918;51.652;4.864;2023-07-30T07:14:41;12.27;;;2.58;;
71196;SDS011;58918;51.652;4.864;2023-07-30T07:17:09;14.27;;;2.75;;
71196;SDS011;58918;51.652;4.864;2023-07-30T07:19:36;15.88;;;3.47;;
71196;SDS011;58918;51.652;4.864;2023-07-30T07:22:04;18.25;;;3.03;;
71196;SDS011;58918;51.652;4.864;2023-07-30T07:24:31;16.33;;;3.42;;
71196;SDS011;58918;51.652;4.864;2023-07-30T07:26:59;14.38;;;2.47;;
71196;SDS011;58918;51.652;4.864;2023-07-30T07:29:26;11.77;;;2.60;;
71196;SDS011;58918;51.652;4.864;2023-07-30T07:31:53;14.45;;;2.78;;
71196;SDS011;58918;51.652;4.864;2023-07-30T07:34:20;10.77;;;2.40;;
71196;SDS011;58918;51.652;4.864;2023-07-30T07:36:48;13.70;;;3.17;;
71196;SDS011;58918;51.652;4.864;2023-07-30T07:39:15;10.18;;;2.45;;
71196;SDS011;58918;51.652;4.864;2023-07-30T07:41:42;16.55;;;3.00;;
71196;SDS011;58918;51.652;4.864;2023-07-30T07:44:09;14.68;;;2.63;;
71196;SDS011;58918;51.652;4.864;2023-07-30T07:46:36;10.60;;;2.33;;
71196;SDS011;58918;51.652;4.864;2023-07-30T07:49:04;13.50;;;2.40;;
71196;SDS011;58918;51.652;4.864;2023-07-30T07:51:31;10.93;;;2.58;;
71196;SDS011;58918;51.652;4.864;2023-07-30T07:53:59;14.90;;;2.40;;
71196;SDS011;58918;51.652;4.864;2023-07-30T07:56:26;15.98;;;2.75;;
71196;SDS011;58918;51.652;4.864;2023-07-30T07:58:53;12.18;;;2.25;;
71196;SDS011;58918;51.652;4.864;2023-07-30T08:01:20;16.05;;;2.38;;
71196;SDS011;58918;51.652;4.864;2023-07-30T08:03:47;11.30;;;2.33;;
71196;SDS011;58918;51.652;4.864;2023-07-30T08:06:15;13.40;;;2.88;;
71196;SDS011;58918;51.652;4.864;2023-07-30T08:08:42;11.98;;;2.25;;
71196;SDS011;58918;51.652;4.864;2023-07-30T08:11:09;11.32;;;2.40;;
71196;SDS011;58918;51.652;4.864;2023-07-30T08:13:36;8.90;;;2.20;;
71196;SDS011;58918;51.652;4.864;2023-07-30T08:16:04;12.05;;;2.17;;
71196;SDS011;58918;51.652;4.864;2023-07-30T08:18:31;12.95;;;2.40;;
71196;SDS011;58918;51.652;4.864;2023-07-30T08:20:59;11.38;;;2.30;;
71196;SDS011;58918;51.652;4.864;2023-07-30T08:23:27;9.65;;;2.22;;
71196;SDS011;58918;51.652;4.864;2023-07-30T08:25:54;15.10;;;3.97;;
71196;SDS011;58918;51.652;4.864;2023-07-30T08:28:21;15.90;;;2.95;;
71196;SDS011;58918;51.652;4.864;2023-07-30T08:30:49;7.05;;;1.50;;
71196;SDS011;58918;51.652;4.864;2023-07-30T08:33:16;10.00;;;1.98;;
71196;SDS011;58918;51.652;4.864;2023-07-30T08:35:44;13.43;;;2.10;;
71196;SDS011;58918;51.652;4.864;2023-07-30T08:38:11;9.32;;;2.25;;
71196;SDS011;58918;51.652;4.864;2023-07-30T08:40:38;11.52;;;2.42;;
71196;SDS011;58918;51.652;4.864;2023-07-30T08:43:09;11.88;;;1.98;;
71196;SDS011;58918;51.652;4.864;2023-07-30T08:45:36;10.82;;;1.98;;
71196;SDS011;58918;51.652;4.864;2023-07-30T08:48:03;8.13;;;2.15;;
71196;SDS011;58918;51.652;4.864;2023-07-30T08:50:31;11.10;;;2.28;;
71196;SDS011;58918;51.652;4.864;2023-07-30T08:52:58;12.00;;;2.22;;
71196;SDS011;58918;51.652;4.864;2023-07-30T08:55:30;9.43;;;1.77;;
71196;SDS011;58918;51.652;4.864;2023-07-30T08:58:01;8.65;;;1.90;;
71196;SDS011;58918;51.652;4.864;2023-07-30T09:00:30;10.93;;;1.92;;
71196;SDS011;58918;51.652;4.864;2023-07-30T09:03:01;9.75;;;2.20;;
71196;SDS011;58918;51.652;4.864;2023-07-30T09:05:29;9.18;;;2.53;;
71196;SDS011;58918;51.652;4.864;2023-07-30T09:07:57;7.80;;;1.75;;
71196;SDS011;58918;51.652;4.864;2023-07-30T09:10:25;9.95;;;2.55;;
71196;SDS011;58918;51.652;4.864;2023-07-30T09:12:54;11.32;;;2.38;;
71196;SDS011;58918;51.652;4.864;2023-07-30T09:15:31;10.27;;;2.35;;
71196;SDS011;58918;51.652;4.864;2023-07-30T09:17:59;8.73;;;2.30;;
71196;SDS011;58918;51.652;4.864;2023-07-30T09:20:27;7.72;;;1.92;;
71196;SDS011;58918;51.652;4.864;2023-07-30T09:22:57;7.97;;;1.70;;
71196;SDS011;58918;51.652;4.864;2023-07-30T09:25:25;6.68;;;1.60;;
71196;SDS011;58918;51.652;4.864;2023-07-30T09:27:52;7.05;;;1.50;;
71196;SDS011;58918;51.652;4.864;2023-07-30T09:30:23;8.40;;;2.00;;
71196;SDS011;58918;51.652;4.864;2023-07-30T09:32:51;11.07;;;1.60;;
71196;SDS011;58918;51.652;4.864;2023-07-30T09:37:46;8.00;;;1.60;;
71196;SDS011;58918;51.652;4.864;2023-07-30T09:40:14;8.25;;;2.00;;
71196;SDS011;58918;51.652;4.864;2023-07-30T09:42:43;6.30;;;1.50;;
71196;SDS011;58918;51.652;4.864;2023-07-30T09:45:20;8.40;;;1.95;;
71196;SDS011;58918;51.652;4.864;2023-07-30T09:47:48;10.68;;;1.58;;
71196;SDS011;58918;51.652;4.864;2023-07-30T09:50:17;11.02;;;2.30;;
71196;SDS011;58918;51.652;4.864;2023-07-30T09:52:44;9.70;;;1.80;;
71196;SDS011;58918;51.652;4.864;2023-07-30T09:55:12;8.75;;;1.58;;
71196;SDS011;58918;51.652;4.864;2023-07-30T09:57:39;7.88;;;1.60;;
71196;SDS011;58918;51.652;4.864;2023-07-30T10:00:06;7.60;;;1.70;;
71196;SDS011;58918;51.652;4.864;2023-07-30T10:02:38;9.77;;;2.35;;
71196;SDS011;58918;51.652;4.864;2023-07-30T10:05:08;8.07;;;1.90;;
71196;SDS011;58918;51.652;4.864;2023-07-30T10:07:38;10.48;;;1.50;;
71196;SDS011;58918;51.652;4.864;2023-07-30T10:10:07;7.93;;;1.58;;
71196;SDS011;58918;51.652;4.864;2023-07-30T10:12:35;9.52;;;1.70;;
71196;SDS011;58918;51.652;4.864;2023-07-30T10:15:03;9.20;;;1.98;;
71196;SDS011;58918;51.652;4.864;2023-07-30T10:17:31;7.15;;;1.60;;
71196;SDS011;58918;51.652;4.864;2023-07-30T10:20:18;9.82;;;1.80;;
71196;SDS011;58918;51.652;4.864;2023-07-30T10:22:47;6.68;;;1.30;;
71196;SDS011;58918;51.652;4.864;2023-07-30T10:25:17;12.05;;;1.60;;
71196;SDS011;58918;51.652;4.864;2023-07-30T10:27:48;6.72;;;1.42;;
71196;SDS011;58918;51.652;4.864;2023-07-30T10:30:17;10.73;;;2.00;;
71196;SDS011;58918;51.652;4.864;2023-07-30T10:38:18;6.30;;;1.40;;
71196;SDS011;58918;51.652;4.864;2023-07-30T10:43:28;8.50;;;1.50;;
71196;SDS011;58918;51.652;4.864;2023-07-30T10:45:56;9.13;;;1.63;;
71196;SDS011;58918;51.652;4.864;2023-07-30T10:48:33;25.95;;;10.82;;
71196;SDS011;58918;51.652;4.864;2023-07-30T10:51:01;44.67;;;20.10;;
71196;SDS011;58918;51.652;4.864;2023-07-30T10:53:28;51.50;;;20.20;;
71196;SDS011;58918;51.652;4.864;2023-07-30T10:55:59;38.38;;;17.25;;
71196;SDS011;58918;51.652;4.864;2023-07-30T10:58:30;27.65;;;11.90;;
71196;SDS011;58918;51.652;4.864;2023-07-30T11:00:57;28.80;;;11.00;;
71196;SDS011;58918;51.652;4.864;2023-07-30T11:03:25;22.58;;;8.05;;
71196;SDS011;58918;51.652;4.864;2023-07-30T11:05:55;17.05;;;6.63;;
71196;SDS011;58918;51.652;4.864;2023-07-30T11:10:59;11.43;;;4.10;;
71196;SDS011;58918;51.652;4.864;2023-07-30T11:13:27;14.02;;;3.65;;
71196;SDS011;58918;51.652;4.864;2023-07-30T11:15:54;7.60;;;2.33;;
71196;SDS011;58918;51.652;4.864;2023-07-30T11:18:21;9.10;;;2.22;;
71196;SDS011;58918;51.652;4.864;2023-07-30T11:20:48;9.87;;;2.33;;
71196;SDS011;58918;51.652;4.864;2023-07-30T11:23:19;7.40;;;2.38;;
71196;SDS011;58918;51.652;4.864;2023-07-30T11:25:50;7.90;;;1.98;;
71196;SDS011;58918;51.652;4.864;2023-07-30T11:31:15;7.47;;;1.65;;
71196;SDS011;58918;51.652;4.864;2023-07-30T11:33:44;6.05;;;1.30;;
71196;SDS011;58918;51.652;4.864;2023-07-30T11:36:12;6.55;;;1.30;;
71196;SDS011;58918;51.652;4.864;2023-07-30T11:38:41;7.07;;;1.38;;
71196;SDS011;58918;51.652;4.864;2023-07-30T11:41:08;7.20;;;1.45;;
71196;SDS011;58918;51.652;4.864;2023-07-30T11:43:40;5.93;;;1.50;;
71196;SDS011;58918;51.652;4.864;2023-07-30T11:46:09;6.05;;;1.00;;
71196;SDS011;58918;51.652;4.864;2023-07-30T11:48:37;4.55;;;1.15;;
71196;SDS011;58918;51.652;4.864;2023-07-30T11:51:05;5.78;;;1.20;;
71196;SDS011;58918;51.652;4.864;2023-07-30T11:56:25;7.82;;;1.25;;
71196;SDS011;58918;51.652;4.864;2023-07-30T11:58:56;6.72;;;1.50;;
71196;SDS011;58918;51.652;4.864;2023-07-30T12:01:24;5.95;;;1.45;;
71196;SDS011;58918;51.652;4.864;2023-07-30T12:03:58;4.20;;;0.90;;
71196;SDS011;58918;51.652;4.864;2023-07-30T12:06:42;7.35;;;1.58;;
71196;SDS011;58918;51.652;4.864;2023-07-30T12:09:16;5.10;;;1.00;;
71196;SDS011;58918;51.652;4.864;2023-07-30T12:11:52;6.18;;;1.02;;
71196;SDS011;58918;51.652;4.864;2023-07-30T12:14:21;5.20;;;1.08;;
71196;SDS011;58918;51.652;4.864;2023-07-30T12:16:48;4.13;;;0.88;;
71196;SDS011;58918;51.652;4.864;2023-07-30T12:19:15;5.10;;;1.10;;
71196;SDS011;58918;51.652;4.864;2023-07-30T12:21:43;6.32;;;0.80;;
71196;SDS011;58918;51.652;4.864;2023-07-30T12:24:11;8.48;;;1.30;;
71196;SDS011;58918;51.652;4.864;2023-07-30T12:26:38;4.38;;;0.80;;
71196;SDS011;58918;51.652;4.864;2023-07-30T12:29:05;6.82;;;1.30;;
71196;SDS011;58918;51.652;4.864;2023-07-30T12:31:32;8.23;;;1.00;;
71196;SDS011;58918;51.652;4.864;2023-07-30T12:34:00;5.68;;;0.80;;
71196;SDS011;58918;51.652;4.864;2023-07-30T12:36:27;3.95;;;0.85;;
71196;SDS011;58918;51.652;4.864;2023-07-30T12:38:54;5.75;;;0.80;;
71196;SDS011;58918;51.652;4.864;2023-07-30T12:41:21;7.15;;;1.10;;
71196;SDS011;58918;51.652;4.864;2023-07-30T12:43:52;4.93;;;0.90;;
71196;SDS011;58918;51.652;4.864;2023-07-30T12:46:20;3.38;;;0.60;;
71196;SDS011;58918;51.652;4.864;2023-07-30T12:48:47;7.03;;;0.82;;
71196;SDS011;58918;51.652;4.864;2023-07-30T12:51:15;4.00;;;0.70;;
71196;SDS011;58918;51.652;4.864;2023-07-30T12:53:42;4.57;;;0.85;;
71196;SDS011;58918;51.652;4.864;2023-07-30T12:56:09;5.82;;;1.20;;
71196;SDS011;58918;51.652;4.864;2023-07-30T12:58:38;4.20;;;0.63;;
71196;SDS011;58918;51.652;4.864;2023-07-30T13:01:06;7.35;;;1.08;;
71196;SDS011;58918;51.652;4.864;2023-07-30T13:03:33;4.28;;;0.70;;
71196;SDS011;58918;51.652;4.864;2023-07-30T13:06:02;5.35;;;1.00;;
71196;SDS011;58918;51.652;4.864;2023-07-30T13:08:29;4.10;;;0.70;;
71196;SDS011;58918;51.652;4.864;2023-07-30T13:10:56;2.95;;;0.75;;
71196;SDS011;58918;51.652;4.864;2023-07-30T13:13:23;3.08;;;0.88;;
71196;SDS011;58918;51.652;4.864;2023-07-30T13:15:50;5.68;;;1.17;;
71196;SDS011;58918;51.652;4.864;2023-07-30T13:18:18;4.43;;;0.75;;
71196;SDS011;58918;51.652;4.864;2023-07-30T13:20:46;5.75;;;1.00;;
71196;SDS011;58918;51.652;4.864;2023-07-30T13:23:13;3.30;;;0.70;;
71196;SDS011;58918;51.652;4.864;2023-07-30T13:25:40;4.40;;;0.90;;
71196;SDS011;58918;51.652;4.864;2023-07-30T13:28:08;3.78;;;1.00;;
71196;SDS011;58918;51.652;4.864;2023-07-30T13:33:04;2.53;;;0.60;;
71196;SDS011;58918;51.652;4.864;2023-07-30T13:35:33;3.95;;;0.68;;
71196;SDS011;58918;51.652;4.864;2023-07-30T13:38:01;3.65;;;0.80;;
71196;SDS011;58918;51.652;4.864;2023-07-30T13:40:28;8.02;;;1.05;;
71196;SDS011;58918;51.652;4.864;2023-07-30T13:42:55;4.13;;;0.98;;
71196;SDS011;58918;51.652;4.864;2023-07-30T13:45:23;4.85;;;0.80;;
71196;SDS011;58918;51.652;4.864;2023-07-30T13:47:50;6.75;;;1.30;;
71196;SDS011;58918;51.652;4.864;2023-07-30T13:50:18;4.80;;;1.17;;
71196;SDS011;58918;51.652;4.864;2023-07-30T13:52:46;8.18;;;1.13;;
71196;SDS011;58918;51.652;4.864;2023-07-30T13:55:13;10.07;;;1.58;;
71196;SDS011;58918;51.652;4.864;2023-07-30T13:57:42;5.20;;;0.85;;
71196;SDS011;58918;51.652;4.864;2023-07-30T14:00:10;6.85;;;1.05;;
71196;SDS011;58918;51.652;4.864;2023-07-30T14:02:37;6.45;;;1.20;;
71196;SDS011;58918;51.652;4.864;2023-07-30T14:05:04;8.18;;;1.10;;
71196;SDS011;58918;51.652;4.864;2023-07-30T14:07:33;6.63;;;1.13;;
71196;SDS011;58918;51.652;4.864;2023-07-30T14:10:01;6.05;;;1.30;;
71196;SDS011;58918;51.652;4.864;2023-07-30T14:12:28;6.78;;;1.10;;
71196;SDS011;58918;51.652;4.864;2023-07-30T14:14:55;6.30;;;1.67;;
71196;SDS011;58918;51.652;4.864;2023-07-30T14:17:22;6.82;;;1.20;;
71196;SDS011;58918;51.652;4.864;2023-07-30T14:19:50;5.55;;;1.00;;
71196;SDS011;58918;51.652;4.864;2023-07-30T14:22:17;5.60;;;1.05;;
71196;SDS011;58918;51.652;4.864;2023-07-30T14:24:45;7.55;;;1.48;;
71196;SDS011;58918;51.652;4.864;2023-07-30T14:27:12;6.28;;;1.10;;
71196;SDS011;58918;51.652;4.864;2023-07-30T14:29:41;8.93;;;1.25;;
71196;SDS011;58918;51.652;4.864;2023-07-30T14:32:08;7.78;;;1.17;;
71196;SDS011;58918;51.652;4.864;2023-07-30T14:34:35;5.38;;;1.27;;
71196;SDS011;58918;51.652;4.864;2023-07-30T14:37:02;8.20;;;1.60;;
71196;SDS011;58918;51.652;4.864;2023-07-30T14:39:30;9.13;;;1.40;;
71196;SDS011;58918;51.652;4.864;2023-07-30T14:41:57;6.70;;;1.30;;
71196;SDS011;58918;51.652;4.864;2023-07-30T14:44:24;5.72;;;1.20;;
71196;SDS011;58918;51.652;4.864;2023-07-30T14:46:52;5.88;;;1.33;;
71196;SDS011;58918;51.652;4.864;2023-07-30T14:49:19;8.00;;;1.40;;
71196;SDS011;58918;51.652;4.864;2023-07-30T14:51:47;10.13;;;1.80;;
71196;SDS011;58918;51.652;4.864;2023-07-30T14:54:14;7.15;;;1.45;;
71196;SDS011;58918;51.652;4.864;2023-07-30T14:56:41;7.88;;;1.60;;
71196;SDS011;58918;51.652;4.864;2023-07-30T14:59:09;9.02;;;2.20;;
71196;SDS011;58918;51.652;4.864;2023-07-30T15:01:39;10.38;;;1.52;;
71196;SDS011;58918;51.652;4.864;2023-07-30T15:04:07;8.45;;;1.80;;
71196;SDS011;58918;51.652;4.864;2023-07-30T15:06:35;9.43;;;2.17;;
71196;SDS011;58918;51.652;4.864;2023-07-30T15:09:03;5.10;;;1.27;;